Friday, November 24, 2017, 1:10 PM GMT
Back to Local

CWFQ, Frelighsburg

Location: , , Canada Lat: 45.05
Local Time: 1:10 PM GMT (13:10 GMT) Lon: -72.833
Time Zone: GMT Elev: 498 ft

Show me the last for .
Show Decoded

2017-11-24 12:00 METAR CWFQ 241200Z AUTO 17002KT M00/M02 RMK AO1 SLP124 T10021020 52007 =
2017-11-24 11:00 METAR CWFQ 241100Z AUTO 21002KT M00/M02 RMK AO1 SLP123 T10041018 53005 =
2017-11-24 10:00 METAR CWFQ 241000Z AUTO 17003KT M00/M02 RMK AO1 SLP118 T10011021 51002 =
2017-11-24 09:00 METAR CWFQ 240900Z AUTO 18003KT M00/M02 RMK AO1 SLP117 T10011020 50005 =
2017-11-24 08:00 METAR CWFQ 240800Z AUTO 18003KT M01/M03 RMK AO1 SLP118 T10051027 53001 =
2017-11-24 07:00 METAR CWFQ 240700Z AUTO 18005KT M01/M04 RMK AO1 SLP116 T10061040 52003 =
2017-11-24 06:00 METAR CWFQ 240600Z AUTO 18005KT M01/M04 RMK AO1 SLP112 T10101044 57006 =
2017-11-24 05:00 METAR CWFQ 240500Z AUTO 19004KT M01/M06 RMK AO1 SLP118 T10101059 55004 =
2017-11-24 04:00 METAR CWFQ 240400Z AUTO 18005KT M01/M06 RMK AO1 SLP114 T10131062 58012 =
2017-11-24 03:00 METAR CWFQ 240300Z AUTO 18005KT M01/M06 RMK AO1 SLP119 T10141055 56011 =
2017-11-24 02:00 METAR CWFQ 240200Z AUTO 18006KT M02/M07 RMK AO1 SLP123 T10181072 58011 =
2017-11-24 01:00 METAR CWFQ 240100Z AUTO 18006KT M02/M08 RMK AO1 SLP127 T10211076 57011 =
2017-11-24 00:00 METAR CWFQ 240000Z AUTO 16005KT M03/M08 RMK AO1 SLP131 T10271080 58009 =
2017-11-23 23:00 METAR CWFQ 232300Z AUTO 17005KT M03/M08 RMK AO1 SLP134 T10301076 56014 =
2017-11-23 22:00 METAR CWFQ 232200Z AUTO 16004KT M03/M08 RMK AO1 SLP138 T10331083 56015 =
2017-11-23 21:00 METAR CWFQ 232100Z AUTO 17004KT M03/M09 RMK AO1 SLP140 T10311091 58018 =
2017-11-23 20:00 METAR CWFQ 232000Z AUTO 18004KT M03/M09 RMK AO1 SLP148 T10331093 56020 =
2017-11-23 19:00 METAR CWFQ 231900Z AUTO 18004KT M04/M10 RMK AO1 SLP154 T10401097 56026 =
2017-11-23 18:00 METAR CWFQ 231800Z AUTO 20004KT M04/M10 RMK AO1 SLP159 T10351101 58030 =
2017-11-23 17:00 METAR CWFQ 231700Z AUTO 23004KT M05/M10 RMK AO1 SLP169 T10541095 58025 =
2017-11-23 16:00 METAR CWFQ 231600Z AUTO 27004KT M06/M10 RMK AO1 SOG 00 8014 SLP180 T10581104 =
2017-11-23 15:00 METAR CWFQ 231500Z AUTO 24005KT M07/M10 RMK AO1 SOG 00 8006 SLP190 T10701104 =
2017-11-23 14:00 METAR CWFQ 231400Z AUTO 24003KT M07/M10 RMK AO1 SOG 00 1002 SLP195 T10741103 =

Support USWX by starting your Amazon purchase here.